Terminal Aerodrome Forecast
Issued by NWS

Home | Current Version | Previous Version | Text Only | Print | Product List | Glossary On
Versions: 1 2 3 4 5 6 7 8 9 10 11 12 13 14 15 16 17 18 19 20 21 22
000
FTUS46 KSEW 252300
TAFOLM
TAF
KOLM 252331Z 2600/2624 20011KT 4SM -RA BR FEW014 SCT020 OVC027
     FM260600 20012KT 2SM BR OVC007
     FM262000 21008KT P6SM OVC025=

USA.gov is the U.S. government's official web portal to all federal, state and local government web resources and services.